createdAt,value
2019-04-11T00:01:08.027Z,3.60
2019-04-11T00:03:45.729Z,3.60
2019-04-11T00:06:23.470Z,3.50
2019-04-11T00:09:00.703Z,3.40
2019-04-11T00:11:37.755Z,3.30
2019-04-11T00:14:15.821Z,3.30
2019-04-11T00:16:53.369Z,3.30
2019-04-11T00:19:29.787Z,3.40
2019-04-11T00:22:07.300Z,3.40
2019-04-11T00:24:45.182Z,3.40
2019-04-11T00:27:22.274Z,3.40
2019-04-11T00:29:59.779Z,3.50
2019-04-11T00:32:37.971Z,3.50
2019-04-11T00:35:15.471Z,3.50
2019-04-11T00:37:52.262Z,3.50
2019-04-11T00:40:29.753Z,3.50
2019-04-11T00:43:07.415Z,3.50
2019-04-11T00:45:45.623Z,3.50
2019-04-11T00:48:22.306Z,3.50
2019-04-11T00:50:59.836Z,3.50
2019-04-11T00:53:38.308Z,3.40
2019-04-11T00:56:15.790Z,3.50
2019-04-11T00:58:52.316Z,3.50
2019-04-11T01:01:29.845Z,3.50
2019-04-11T01:04:07.643Z,3.50
2019-04-11T01:06:44.835Z,3.50
2019-04-11T01:09:22.331Z,3.50
2019-04-11T01:12:00.453Z,3.50
2019-04-11T01:14:38.576Z,3.50
2019-04-11T01:17:14.954Z,3.40
2019-04-11T01:19:53.213Z,3.40
2019-04-11T01:22:29.914Z,3.40
2019-04-11T01:25:08.402Z,3.50
2019-04-11T01:27:45.900Z,3.50
2019-04-11T01:30:25.136Z,3.50
2019-04-11T01:33:02.666Z,3.40
2019-04-11T01:35:40.181Z,3.40
2019-04-11T01:38:17.696Z,3.40
2019-04-11T01:40:56.160Z,3.40
2019-04-11T01:43:32.695Z,3.40
2019-04-11T01:46:10.187Z,3.40
2019-04-11T01:49:19.781Z,3.40
2019-04-11T01:51:58.186Z,3.40
2019-04-11T01:54:35.478Z,3.30
2019-04-11T01:57:12.238Z,3.20
2019-04-11T01:59:49.729Z,3.20
2019-04-11T02:02:48.658Z,3.20
2019-04-11T02:05:27.922Z,3.10
2019-04-11T02:08:05.436Z,3.10
2019-04-11T02:10:43.248Z,3.10
2019-04-11T02:13:20.573Z,3.10
2019-04-11T02:15:58.866Z,3.10
2019-04-11T02:18:35.573Z,3.00
2019-04-11T02:21:13.618Z,3.00
2019-04-11T02:23:59.820Z,3.00
2019-04-11T02:26:37.715Z,3.00
2019-04-11T02:29:14.866Z,2.90
2019-04-11T02:31:52.917Z,2.90
2019-04-11T02:34:29.885Z,2.90
2019-04-11T02:37:09.149Z,2.90
2019-04-11T02:39:44.834Z,2.80
2019-04-11T02:42:23.367Z,2.70
2019-04-11T02:45:18.490Z,2.70
2019-04-11T02:47:39.563Z,2.70
2019-04-11T02:50:17.104Z,2.60
2019-04-11T02:52:52.874Z,2.50
2019-04-11T02:55:31.674Z,2.50
2019-04-11T02:58:08.097Z,2.40
2019-04-11T03:00:45.648Z,2.40
2019-04-11T03:03:23.221Z,2.30
2019-04-11T03:06:02.176Z,2.20
2019-04-11T03:08:38.803Z,2.20
2019-04-11T03:11:16.765Z,2.10
2019-04-11T03:13:54.846Z,2.10
2019-04-11T03:16:42.670Z,2.00
2019-04-11T03:19:22.563Z,1.90
2019-04-11T03:21:47.382Z,1.80
2019-04-11T03:24:24.458Z,1.70
2019-04-11T03:27:04.576Z,1.60
2019-04-11T03:29:38.681Z,1.50
2019-04-11T03:33:11.342Z,1.50
2019-04-11T03:38:00.071Z,1.40
2019-04-11T03:40:30.773Z,1.30
2019-04-11T03:43:01.231Z,1.30
2019-04-11T03:45:48.329Z,1.30
2019-04-11T03:48:20.346Z,1.20
2019-04-11T03:50:42.537Z,1.20
2019-04-11T03:53:21.513Z,1.20
2019-04-11T03:55:58.700Z,1.10
2019-04-11T03:58:35.104Z,1.10
2019-04-11T04:01:14.005Z,1.00
2019-04-11T04:03:51.888Z,1.00
2019-04-11T04:06:28.685Z,1.00
2019-04-11T04:09:06.595Z,1.00
2019-04-11T04:11:45.452Z,0.90
2019-04-11T04:14:37.696Z,0.90
2019-04-11T04:17:43.571Z,0.90
2019-04-11T04:20:39.419Z,0.90
2019-04-11T04:23:38.894Z,0.90
2019-04-11T04:26:16.879Z,0.90
2019-04-11T04:28:55.386Z,0.80
2019-04-11T04:31:32.887Z,0.80
2019-04-11T04:34:09.386Z,0.80
2019-04-11T04:36:47.297Z,0.80
2019-04-11T04:39:24.863Z,0.90
2019-04-11T04:42:09.261Z,0.90
2019-04-11T04:44:40.386Z,0.90
2019-04-11T04:47:22.144Z,0.90
2019-04-11T04:49:54.379Z,1.00
2019-04-11T04:52:32.501Z,1.00
2019-04-11T04:55:10.591Z,1.00
2019-04-11T04:57:46.499Z,1.10
2019-04-11T05:00:25.430Z,1.10
2019-04-11T05:03:02.195Z,1.10
2019-04-11T05:05:39.059Z,1.20
2019-04-11T05:08:16.689Z,1.20
2019-04-11T05:10:55.659Z,1.20
2019-04-11T05:13:32.343Z,1.30
2019-04-11T05:16:17.282Z,1.30
2019-04-11T05:18:46.764Z,1.40
2019-04-11T05:21:25.350Z,1.40
2019-04-11T05:24:02.071Z,1.50
2019-04-11T05:26:39.685Z,1.60
2019-04-11T05:29:17.421Z,1.60
2019-04-11T05:31:54.702Z,1.70
2019-04-11T05:34:32.787Z,1.70
2019-04-11T05:37:09.291Z,1.80
2019-04-11T05:39:46.827Z,1.90
2019-04-11T05:42:26.958Z,2.00
2019-04-11T05:45:01.822Z,2.10
2019-04-11T05:47:39.392Z,2.20
2019-04-11T05:50:45.442Z,2.20
2019-04-11T05:53:21.111Z,2.30
2019-04-11T05:55:57.468Z,2.40
2019-04-11T05:58:36.625Z,2.50
2019-04-11T06:01:18.286Z,2.60
2019-04-11T06:03:58.669Z,2.70
2019-04-11T06:06:44.375Z,2.80
2019-04-11T06:09:30.368Z,2.90
2019-04-11T06:12:41.644Z,3.00
2019-04-11T06:15:23.637Z,3.10
2019-04-11T06:18:02.815Z,3.20
2019-04-11T06:20:47.218Z,3.20
2019-04-11T06:23:43.453Z,3.40
2019-04-11T06:26:38.718Z,3.40
2019-04-11T06:29:24.975Z,3.50
2019-04-11T06:32:24.835Z,3.60
2019-04-11T06:35:08.054Z,3.80
2019-04-11T06:38:12.767Z,4.00
2019-04-11T06:40:59.933Z,4.10
2019-04-11T06:43:52.117Z,4.20
2019-04-11T06:46:54.075Z,4.30
2019-04-11T06:49:36.366Z,4.40
2019-04-11T06:52:14.847Z,4.60
2019-04-11T06:55:10.843Z,4.70
2019-04-11T06:57:48.167Z,4.90
2019-04-11T07:00:25.786Z,5.20
2019-04-11T07:03:03.737Z,5.30
2019-04-11T07:05:41.267Z,5.50
2019-04-11T07:08:20.360Z,5.70
2019-04-11T07:11:02.951Z,5.70
2019-04-11T07:13:49.780Z,5.80
2019-04-11T07:16:27.603Z,5.90
2019-04-11T07:19:23.011Z,6.00
2019-04-11T07:22:00.504Z,6.10
2019-04-11T07:24:57.366Z,6.20
2019-04-11T07:27:36.646Z,6.30
2019-04-11T07:30:33.238Z,6.40
2019-04-11T07:33:28.898Z,6.40
2019-04-11T07:36:24.452Z,6.30
2019-04-11T07:39:09.943Z,6.30
2019-04-11T07:42:06.947Z,6.30
2019-04-11T07:44:43.143Z,6.30
2019-04-11T07:47:29.523Z,6.40
2019-04-11T07:50:07.931Z,6.50
2019-04-11T07:52:50.033Z,6.80
2019-04-11T07:55:27.937Z,6.90
2019-04-11T07:58:24.012Z,7.20
2019-04-11T08:01:24.859Z,7.30
2019-04-11T08:04:19.964Z,7.30
2019-04-11T08:07:13.176Z,7.20
2019-04-11T08:09:57.152Z,7.10
2019-04-11T08:12:34.179Z,7.00
2019-04-11T08:15:46.047Z,7.00
2019-04-11T08:18:59.320Z,7.00
2019-04-11T08:22:00.860Z,7.00
2019-04-11T08:24:48.969Z,7.00
2019-04-11T08:27:54.112Z,7.10
2019-04-11T08:30:20.508Z,7.20
2019-04-11T08:33:00.306Z,7.50
2019-04-11T08:35:54.051Z,7.80
2019-04-11T08:38:32.195Z,7.90
2019-04-11T08:41:21.721Z,8.10
2019-04-11T08:43:59.448Z,8.20
2019-04-11T08:46:39.573Z,8.30
2019-04-11T08:49:29.918Z,8.60
2019-04-11T08:52:09.794Z,9.00
2019-04-11T08:55:06.191Z,9.20
2019-04-11T08:57:49.970Z,9.30
2019-04-11T09:00:38.614Z,9.50
2019-04-11T09:03:23.902Z,9.50
2019-04-11T09:06:14.685Z,9.70
2019-04-11T09:09:20.901Z,10.10
2019-04-11T09:12:00.446Z,10.30
2019-04-11T09:15:05.947Z,10.40
2019-04-11T09:17:58.861Z,10.60
2019-04-11T09:20:46.160Z,10.80
2019-04-11T09:23:25.921Z,11.10
2019-04-11T09:26:32.010Z,11.30
2019-04-11T09:29:08.700Z,11.20
2019-04-11T09:32:07.755Z,10.80
2019-04-11T09:34:50.584Z,10.60
2019-04-11T09:37:33.922Z,10.50
2019-04-11T09:40:30.212Z,10.50
2019-04-11T09:43:26.478Z,10.80
2019-04-11T09:46:33.048Z,10.90
2019-04-11T09:49:24.863Z,10.90
2019-04-11T09:52:22.745Z,11.00
2019-04-11T09:55:12.969Z,11.00
2019-04-11T09:57:54.637Z,11.10
2019-04-11T10:00:59.493Z,11.30
2019-04-11T10:03:36.921Z,11.60
2019-04-11T10:06:36.750Z,11.70
2019-04-11T10:09:13.791Z,11.80
2019-04-11T10:12:09.960Z,11.90
2019-04-11T10:14:50.147Z,12.10
2019-04-11T10:17:48.567Z,12.10
2019-04-11T10:20:26.814Z,12.30
2019-04-11T10:23:22.954Z,12.40
2019-04-11T10:26:03.530Z,12.50
2019-04-11T10:29:00.162Z,12.60
2019-04-11T10:31:38.942Z,12.90
2019-04-11T10:34:35.427Z,13.30
2019-04-11T10:37:15.869Z,13.40
2019-04-11T10:40:01.833Z,13.40
2019-04-11T10:42:39.046Z,13.30
2019-04-11T10:45:35.013Z,13.20
2019-04-11T10:48:13.794Z,13.20
2019-04-11T10:51:11.377Z,13.30
2019-04-11T10:53:49.874Z,13.40
2019-04-11T10:56:47.575Z,13.60
2019-04-11T10:59:27.970Z,13.70
2019-04-11T11:02:12.663Z,13.80
2019-04-11T11:04:52.629Z,13.90
2019-04-11T11:07:32.892Z,14.10
2019-04-11T11:10:15.775Z,14.30
2019-04-11T11:13:19.429Z,14.40
2019-04-11T11:16:00.071Z,14.60
2019-04-11T11:19:24.451Z,14.70
2019-04-11T11:21:37.226Z,14.80
2019-04-11T11:24:31.648Z,14.90
2019-04-11T11:27:09.431Z,14.90
2019-04-11T11:30:12.732Z,14.60
2019-04-11T11:32:50.150Z,14.60
2019-04-11T11:36:01.176Z,14.80
2019-04-11T11:38:36.269Z,15.10
2019-04-11T11:41:32.364Z,15.30
2019-04-11T11:44:11.664Z,15.80
2019-04-11T11:47:05.477Z,16.40
2019-04-11T11:49:51.932Z,16.50
2019-04-11T11:52:41.221Z,16.10
2019-04-11T11:55:21.849Z,15.60
2019-04-11T11:58:16.797Z,15.10
2019-04-11T12:00:52.149Z,14.60
2019-04-11T12:03:59.340Z,14.00
2019-04-11T12:06:33.347Z,13.50
2019-04-11T12:09:30.734Z,13.20
2019-04-11T12:12:13.560Z,12.90
2019-04-11T12:15:09.745Z,12.50
2019-04-11T12:18:01.777Z,12.20
2019-04-11T12:20:46.344Z,12.00
2019-04-11T12:23:43.656Z,11.90
2019-04-11T12:26:12.536Z,12.00
2019-04-11T12:29:06.687Z,12.00
2019-04-11T12:31:48.093Z,12.10
2019-04-11T12:34:36.723Z,12.40
2019-04-11T12:37:23.442Z,12.50
2019-04-11T12:40:22.642Z,12.60
2019-04-11T12:43:01.874Z,12.80
2019-04-11T12:45:57.881Z,13.00
2019-04-11T12:48:40.089Z,13.00
2019-04-11T12:51:23.055Z,12.80
2019-04-11T12:54:00.576Z,12.80
2019-04-11T12:56:54.685Z,12.90
2019-04-11T12:59:32.343Z,13.00
2019-04-11T13:02:28.478Z,12.90
2019-04-11T13:05:07.207Z,12.70
2019-04-11T13:07:53.021Z,12.60
2019-04-11T13:10:32.940Z,12.50
2019-04-11T13:13:28.390Z,12.40
2019-04-11T13:16:12.770Z,12.40
2019-04-11T13:19:07.571Z,12.50
2019-04-11T13:21:57.830Z,12.60
2019-04-11T13:24:55.856Z,12.70
2019-04-11T13:27:37.776Z,12.90
2019-04-11T13:30:33.934Z,13.20
2019-04-11T13:33:17.640Z,13.00
2019-04-11T13:36:16.498Z,12.90
2019-04-11T13:38:54.225Z,12.80
2019-04-11T13:41:50.309Z,12.80
2019-04-11T13:44:30.922Z,12.80
2019-04-11T13:47:26.648Z,12.80
2019-04-11T13:50:16.286Z,13.00
2019-04-11T13:53:14.333Z,13.00
2019-04-11T13:55:51.928Z,12.90
2019-04-11T13:59:00.708Z,12.80
2019-04-11T14:01:39.418Z,12.70
2019-04-11T14:04:22.754Z,12.50
2019-04-11T14:07:00.241Z,12.40
2019-04-11T14:09:42.862Z,12.10
2019-04-11T14:12:20.358Z,11.80
2019-04-11T14:15:06.356Z,11.60
2019-04-11T14:17:58.484Z,11.50
2019-04-11T14:20:41.809Z,11.40
2019-04-11T14:23:34.232Z,11.30
2019-04-11T14:26:30.639Z,11.10
2019-04-11T14:29:13.605Z,11.00
2019-04-11T14:31:54.689Z,10.90
2019-04-11T14:35:03.293Z,10.90
2019-04-11T14:37:47.342Z,10.90
2019-04-11T14:41:01.656Z,10.80
2019-04-11T14:43:40.516Z,10.80
2019-04-11T14:46:37.251Z,10.70
2019-04-11T14:49:16.085Z,10.50
2019-04-11T14:52:12.155Z,10.40
2019-04-11T14:54:51.756Z,10.20
2019-04-11T14:57:54.498Z,10.10
2019-04-11T15:00:34.059Z,10.10
2019-04-11T15:03:30.194Z,10.20
2019-04-11T15:06:36.290Z,10.20
2019-04-11T15:09:32.780Z,10.30
2019-04-11T15:12:19.414Z,10.30
2019-04-11T15:15:25.412Z,10.30
2019-04-11T15:18:04.812Z,10.30
2019-04-11T15:21:06.613Z,10.40
2019-04-11T15:23:44.782Z,10.40
2019-04-11T15:26:40.953Z,10.30
2019-04-11T15:29:26.173Z,10.20
2019-04-11T15:32:24.931Z,10.00
2019-04-11T15:35:08.511Z,9.90
2019-04-11T15:38:04.276Z,9.80
2019-04-11T15:40:45.083Z,9.70
2019-04-11T15:43:43.245Z,9.70
2019-04-11T15:46:24.007Z,9.70
2019-04-11T15:49:24.691Z,9.70
2019-04-11T15:52:01.215Z,9.60
2019-04-11T15:54:57.363Z,9.50
2019-04-11T15:57:44.350Z,9.50
2019-04-11T16:00:43.653Z,9.40
2019-04-11T16:03:24.589Z,9.20
2019-04-11T16:06:19.082Z,9.00
2019-04-11T16:08:59.497Z,9.00
2019-04-11T16:11:56.318Z,9.00
2019-04-11T16:14:38.276Z,8.90
2019-04-11T16:17:42.409Z,8.90
2019-04-11T16:20:25.950Z,8.80
2019-04-11T16:23:25.837Z,8.70
2019-04-11T16:26:01.188Z,8.70
2019-04-11T16:29:08.667Z,8.70
2019-04-11T16:31:45.543Z,8.60
2019-04-11T16:34:47.896Z,8.60
2019-04-11T16:37:18.576Z,8.60
2019-04-11T16:40:14.465Z,8.60
2019-04-11T16:42:59.071Z,8.60
2019-04-11T16:45:54.799Z,8.60
2019-04-11T16:48:30.400Z,8.70
2019-04-11T16:51:07.954Z,8.70
2019-04-11T16:53:45.549Z,8.60
2019-04-11T16:56:23.044Z,8.60
2019-04-11T16:59:00.651Z,8.60
2019-04-11T17:01:38.063Z,8.50
2019-04-11T17:04:15.580Z,8.50
2019-04-11T17:07:00.356Z,8.40
2019-04-11T17:09:41.253Z,8.40
2019-04-11T17:12:20.199Z,8.30
2019-04-11T17:15:01.083Z,8.20
2019-04-11T17:17:37.718Z,8.20
2019-04-11T17:20:16.181Z,8.20
2019-04-11T17:22:54.790Z,8.20
2019-04-11T17:25:35.016Z,8.10
2019-04-11T17:28:12.819Z,8.10
2019-04-11T17:30:55.057Z,8.00
2019-04-11T17:33:30.136Z,7.90
2019-04-11T17:36:08.478Z,7.90
2019-04-11T17:38:46.645Z,7.80
2019-04-11T17:41:24.519Z,7.80
2019-04-11T17:44:02.668Z,7.70
2019-04-11T17:46:40.782Z,7.70
2019-04-11T17:49:19.303Z,7.60
2019-04-11T17:51:57.280Z,7.50
2019-04-11T17:54:35.544Z,7.50
2019-04-11T17:57:14.006Z,7.40
2019-04-11T17:59:51.773Z,7.40
2019-04-11T18:02:30.625Z,7.30
2019-04-11T18:05:09.408Z,7.30
2019-04-11T18:07:49.941Z,7.30
2019-04-11T18:10:27.052Z,7.20
2019-04-11T18:13:06.871Z,7.10
2019-04-11T18:15:45.851Z,7.10
2019-04-11T18:18:26.927Z,7.00
2019-04-11T18:21:08.074Z,6.90
2019-04-11T18:23:49.910Z,6.90
2019-04-11T18:26:30.991Z,6.80
2019-04-11T18:29:08.743Z,6.80
2019-04-11T18:31:46.667Z,6.80
2019-04-11T18:34:24.220Z,6.70
2019-04-11T18:37:02.636Z,6.70
2019-04-11T18:39:42.957Z,6.70
2019-04-11T18:42:20.508Z,6.70
2019-04-11T18:44:58.094Z,6.70
2019-04-11T18:47:35.853Z,6.60
2019-04-11T18:50:13.704Z,6.60
2019-04-11T18:52:51.320Z,6.60
2019-04-11T18:55:29.130Z,6.60
2019-04-11T18:58:06.884Z,6.60
2019-04-11T19:00:44.713Z,6.50
2019-04-11T19:03:23.076Z,6.50
2019-04-11T19:06:00.928Z,6.50
2019-04-11T19:08:38.607Z,6.50
2019-04-11T19:11:32.134Z,6.50
2019-04-11T19:14:11.228Z,6.40
2019-04-11T19:16:51.979Z,6.40
2019-04-11T19:19:29.755Z,6.40
2019-04-11T19:22:07.634Z,6.40
2019-04-11T19:24:46.234Z,6.30
2019-04-11T19:27:24.136Z,6.30
2019-04-11T19:30:02.995Z,6.30
2019-04-11T19:32:40.647Z,6.30
2019-04-11T19:35:18.138Z,6.20
2019-04-11T19:37:55.716Z,6.30
2019-04-11T19:40:33.248Z,6.20
2019-04-11T19:43:10.801Z,6.20
2019-04-11T19:45:50.040Z,6.10
2019-04-11T19:48:25.847Z,6.10
2019-04-11T19:51:03.891Z,6.10
2019-04-11T19:53:41.381Z,6.10
2019-04-11T19:56:47.588Z,6.10
2019-04-11T19:59:25.055Z,6.10
2019-04-11T20:02:02.549Z,6.10
2019-04-11T20:04:40.061Z,6.10
2019-04-11T20:07:17.549Z,6.10
2019-04-11T20:09:55.056Z,6.10
2019-04-11T20:12:32.530Z,6.10
2019-04-11T20:15:10.139Z,6.10
2019-04-11T20:17:51.086Z,6.00
2019-04-11T20:20:25.369Z,6.00
2019-04-11T20:23:02.846Z,6.00
2019-04-11T20:25:40.369Z,6.00
2019-04-11T20:28:19.707Z,6.00
2019-04-11T20:30:55.387Z,6.00
2019-04-11T20:33:34.687Z,6.00
2019-04-11T20:36:11.183Z,6.00
2019-04-11T20:38:47.879Z,6.00
2019-04-11T20:41:25.364Z,6.00
2019-04-11T20:44:02.831Z,5.90
2019-04-11T20:46:40.348Z,5.90
2019-04-11T20:49:17.842Z,5.90
2019-04-11T20:51:55.345Z,5.90
2019-04-11T20:54:32.838Z,5.90
2019-04-11T20:57:12.058Z,5.90
2019-04-11T20:59:51.070Z,5.90
2019-04-11T21:02:29.186Z,5.90
2019-04-11T21:05:06.193Z,5.90
2019-04-11T21:07:43.696Z,5.80
2019-04-11T21:10:21.200Z,5.80
2019-04-11T21:13:07.245Z,5.80
2019-04-11T21:15:42.359Z,5.80
2019-04-11T21:18:19.836Z,5.80
2019-04-11T21:20:57.336Z,5.80
2019-04-11T21:23:34.808Z,5.80
2019-04-11T21:26:12.348Z,5.80
2019-04-11T21:28:49.824Z,5.80
2019-04-11T21:31:30.814Z,5.70
2019-04-11T21:34:04.833Z,5.80
2019-04-11T21:36:42.341Z,5.80
2019-04-11T21:39:19.827Z,5.80
2019-04-11T21:41:57.329Z,5.80
2019-04-11T21:44:36.770Z,5.80
2019-04-11T21:47:12.322Z,5.80
2019-04-11T21:49:49.802Z,5.80
2019-04-11T21:52:27.313Z,5.80
2019-04-11T21:55:05.167Z,5.80
2019-04-11T21:57:42.676Z,5.80
2019-04-11T22:00:26.638Z,5.80
2019-04-11T22:03:06.598Z,5.80
2019-04-11T22:05:41.982Z,5.80
2019-04-11T22:08:19.487Z,5.90
2019-04-11T22:10:56.980Z,5.90
2019-04-11T22:13:34.468Z,5.90
2019-04-11T22:16:14.218Z,5.90
2019-04-11T22:18:49.462Z,5.90
2019-04-11T22:21:26.974Z,5.90
2019-04-11T22:24:04.444Z,5.90
2019-04-11T22:26:41.949Z,5.90
2019-04-11T22:29:19.430Z,5.90
2019-04-11T22:31:56.988Z,5.90
2019-04-11T22:34:41.582Z,5.90
2019-04-11T22:37:19.069Z,5.90
2019-04-11T22:39:56.536Z,5.90
2019-04-11T22:42:34.053Z,5.90
2019-04-11T22:45:11.537Z,5.80
2019-04-11T22:47:49.053Z,5.80
2019-04-11T22:50:26.520Z,5.80
2019-04-11T22:53:04.017Z,5.80
2019-04-11T22:55:41.889Z,5.80
2019-04-11T22:58:19.004Z,5.70
2019-04-11T23:00:56.467Z,5.70
2019-04-11T23:03:46.971Z,5.60
2019-04-11T23:06:21.363Z,5.60
2019-04-11T23:08:58.828Z,5.60
2019-04-11T23:11:36.327Z,5.60
2019-04-11T23:14:15.950Z,5.50
2019-04-11T23:16:51.332Z,5.50
2019-04-11T23:19:28.812Z,5.50
2019-04-11T23:22:06.315Z,5.50
2019-04-11T23:24:43.806Z,5.50
2019-04-11T23:27:21.385Z,5.40
2019-04-11T23:29:58.900Z,5.40
2019-04-11T23:32:36.382Z,5.50
2019-04-11T23:35:13.855Z,5.40
2019-04-11T23:37:52.125Z,5.40
2019-04-11T23:40:29.429Z,5.40
2019-04-11T23:43:06.987Z,5.40
2019-04-11T23:45:44.408Z,5.40
2019-04-11T23:48:24.068Z,5.30
2019-04-11T23:50:59.383Z,5.30
2019-04-11T23:53:36.893Z,5.30
2019-04-11T23:56:14.387Z,5.30
2019-04-11T23:58:51.886Z,5.30
